createdAt,value
2023-03-31T00:01:52.849Z,100216.84
2023-03-31T00:04:24.460Z,100216.84
2023-03-31T00:06:54.535Z,100196.97
2023-03-31T00:09:24.920Z,100200.81
2023-03-31T00:11:52.653Z,100193.44
2023-03-31T00:14:20.759Z,100189.44
2023-03-31T00:16:47.455Z,100183.19
2023-03-31T00:19:20.617Z,100181.28
2023-03-31T00:21:48.752Z,100166.88
2023-03-31T00:24:16.475Z,100167.94
2023-03-31T00:26:43.470Z,100167.66
2023-03-31T00:29:12.344Z,100162.22
2023-03-31T00:31:39.236Z,100167.16
2023-03-31T00:34:06.963Z,100152.44
2023-03-31T00:36:36.871Z,100151.63
2023-03-31T00:39:09.254Z,100141.88
2023-03-31T00:41:37.639Z,100145.97
2023-03-31T00:44:24.785Z,100144.91
2023-03-31T00:46:54.587Z,100138.41
2023-03-31T00:49:47.249Z,100142.22
2023-03-31T00:52:19.714Z,100124.00
2023-03-31T00:54:51.440Z,100117.50
2023-03-31T00:57:18.254Z,100116.16
2023-03-31T00:59:52.080Z,100102.88
2023-03-31T01:02:20.805Z,100105.28
2023-03-31T01:04:54.796Z,100102.03
2023-03-31T01:07:33.594Z,100096.31
2023-03-31T01:10:03.720Z,100092.00
2023-03-31T01:12:32.837Z,100082.50
2023-03-31T01:15:00.025Z,100077.06
2023-03-31T01:17:29.866Z,100082.19
2023-03-31T01:20:14.909Z,100065.63
2023-03-31T01:23:05.456Z,100060.75
2023-03-31T01:25:38.804Z,100060.75
2023-03-31T01:28:20.309Z,100046.97
2023-03-31T01:31:08.665Z,100042.31
2023-03-31T01:33:56.414Z,100036.88
2023-03-31T01:36:58.439Z,100026.00
2023-03-31T01:39:46.589Z,100017.38
2023-03-31T01:42:31.738Z,100015.22
2023-03-31T01:45:05.081Z,100000.22
2023-03-31T01:47:40.957Z,99990.78
2023-03-31T01:50:19.391Z,99990.78
2023-03-31T01:52:57.423Z,99978.78
2023-03-31T01:55:36.936Z,99965.50
2023-03-31T01:58:18.323Z,99956.25
2023-03-31T02:00:56.910Z,99960.88
2023-03-31T02:03:35.512Z,99945.66
2023-03-31T02:06:16.400Z,99945.38
2023-03-31T02:08:49.644Z,99923.41
2023-03-31T02:11:16.957Z,99917.19
2023-03-31T02:13:47.753Z,99916.38
2023-03-31T02:16:22.056Z,99898.44
2023-03-31T02:18:50.318Z,99894.31
2023-03-31T02:21:17.565Z,99885.16
2023-03-31T02:23:45.777Z,99880.53
2023-03-31T02:26:27.406Z,99873.47
2023-03-31T02:28:54.086Z,99865.31
2023-03-31T02:31:36.675Z,99854.94
2023-03-31T02:34:03.383Z,99850.31
2023-03-31T02:36:30.814Z,99835.91
2023-03-31T02:39:10.649Z,99828.41
2023-03-31T02:41:37.690Z,99827.56
2023-03-31T02:44:04.390Z,99817.53
2023-03-31T02:46:32.090Z,99807.47
2023-03-31T02:49:02.718Z,99807.13
2023-03-31T02:51:35.288Z,99806.66
2023-03-31T02:54:01.727Z,99812.88
2023-03-31T02:56:51.701Z,99806.72
2023-03-31T02:59:32.268Z,99797.47
2023-03-31T03:01:58.666Z,99781.16
2023-03-31T03:05:02.252Z,99773.91
2023-03-31T03:07:45.521Z,99763.84
2023-03-31T03:10:34.389Z,99753.78
2023-03-31T03:13:22.392Z,99754.09
2023-03-31T03:16:08.832Z,99744.84
2023-03-31T03:18:36.108Z,99730.44
2023-03-31T03:21:02.714Z,99723.41
2023-03-31T03:23:29.279Z,99713.34
2023-03-31T03:25:55.784Z,99704.69
2023-03-31T03:28:22.281Z,99701.66
2023-03-31T03:30:48.776Z,99694.31
2023-03-31T03:33:17.280Z,99674.81
2023-03-31T03:35:44.042Z,99673.69
2023-03-31T03:38:10.769Z,99660.13
2023-03-31T03:40:37.392Z,99655.78
2023-03-31T03:43:03.859Z,99659.91
2023-03-31T03:45:30.579Z,99638.97
2023-03-31T03:47:57.177Z,99630.03
2023-03-31T03:50:23.704Z,99629.53
2023-03-31T03:52:50.522Z,99619.44
2023-03-31T03:55:17.861Z,99614.84
2023-03-31T03:57:44.397Z,99608.28
2023-03-31T04:00:12.448Z,99593.91
2023-03-31T04:02:40.291Z,99584.13
2023-03-31T04:05:07.172Z,99580.31
2023-03-31T04:07:33.751Z,99577.91
2023-03-31T04:10:00.254Z,99578.69
2023-03-31T04:12:26.714Z,99557.16
2023-03-31T04:14:53.223Z,99553.03
2023-03-31T04:17:32.522Z,99563.28
2023-03-31T04:20:05.935Z,99561.06
2023-03-31T04:22:35.564Z,99540.16
2023-03-31T04:25:14.644Z,99538.09
2023-03-31T04:27:54.801Z,99533.16
2023-03-31T04:30:23.198Z,99534.44
2023-03-31T04:32:55.146Z,99535.75
2023-03-31T04:35:23.485Z,99513.69
2023-03-31T04:37:52.427Z,99518.31
2023-03-31T04:40:18.967Z,99503.94
2023-03-31T04:42:45.716Z,99504.75
2023-03-31T04:45:13.027Z,99495.00
2023-03-31T04:47:39.612Z,99486.84
2023-03-31T04:50:06.910Z,99475.16
2023-03-31T04:52:33.373Z,99477.88
2023-03-31T04:54:59.846Z,99470.84
2023-03-31T04:57:26.387Z,99475.47
2023-03-31T04:59:52.959Z,99465.72
2023-03-31T05:02:25.303Z,99483.13
2023-03-31T05:04:52.908Z,99466.81
2023-03-31T05:07:19.930Z,99473.38
2023-03-31T05:09:46.992Z,99461.41
2023-03-31T05:12:13.519Z,99457.88
2023-03-31T05:14:40.037Z,99443.50
2023-03-31T05:17:06.560Z,99457.88
2023-03-31T05:19:33.223Z,99456.25
2023-03-31T05:21:59.917Z,99445.38
2023-03-31T05:24:28.241Z,99463.31
2023-03-31T05:26:54.799Z,99447.00
2023-03-31T05:29:22.024Z,99442.84
2023-03-31T05:31:48.633Z,99436.63
2023-03-31T05:34:16.308Z,99434.69
2023-03-31T05:36:47.952Z,99430.09
2023-03-31T05:39:14.453Z,99440.94
2023-03-31T05:41:41.207Z,99431.69
2023-03-31T05:44:07.802Z,99421.09
2023-03-31T05:46:34.405Z,99424.94
2023-03-31T05:49:00.978Z,99429.25
2023-03-31T05:51:27.498Z,99415.66
2023-03-31T05:53:54.017Z,99420.31
2023-03-31T05:56:20.547Z,99421.09
2023-03-31T05:58:47.055Z,99419.84
2023-03-31T06:01:21.404Z,99412.47
2023-03-31T06:03:48.402Z,99414.41
2023-03-31T06:06:16.661Z,99400.81
2023-03-31T06:08:44.831Z,99402.72
2023-03-31T06:11:14.941Z,99403.19
2023-03-31T06:13:41.501Z,99398.56
2023-03-31T06:16:10.303Z,99393.13
2023-03-31T06:18:37.098Z,99398.88
2023-03-31T06:21:04.529Z,99383.88
2023-03-31T06:23:32.136Z,99384.97
2023-03-31T06:26:04.201Z,99384.97
2023-03-31T06:28:31.227Z,99376.81
2023-03-31T06:31:06.226Z,99378.75
2023-03-31T06:33:34.121Z,99372.50
2023-03-31T06:36:04.188Z,99367.41
2023-03-31T06:38:31.272Z,99380.16
2023-03-31T06:40:57.837Z,99367.41
2023-03-31T06:43:24.642Z,99366.56
2023-03-31T06:45:53.979Z,99370.91
2023-03-31T06:48:21.593Z,99352.69
2023-03-31T06:50:48.153Z,99356.22
2023-03-31T06:53:14.663Z,99351.28
2023-03-31T06:55:41.185Z,99354.78
2023-03-31T06:58:08.053Z,99357.50
2023-03-31T07:00:34.782Z,99356.72
2023-03-31T07:03:02.039Z,99354.78
2023-03-31T07:05:29.004Z,99354.00
2023-03-31T07:07:56.915Z,99349.34
2023-03-31T07:10:25.263Z,99349.34
2023-03-31T07:12:52.083Z,99346.94
2023-03-31T07:15:19.694Z,99352.69
2023-03-31T07:17:46.401Z,99334.13
2023-03-31T07:20:15.098Z,99341.03
2023-03-31T07:22:42.458Z,99336.38
2023-03-31T07:25:10.149Z,99341.03
2023-03-31T07:27:37.100Z,99327.09
2023-03-31T07:30:08.129Z,99330.63
2023-03-31T07:32:39.559Z,99321.69
2023-03-31T07:35:10.501Z,99319.28
2023-03-31T07:37:38.561Z,99324.41
2023-03-31T07:40:06.594Z,99310.81
2023-03-31T07:42:33.946Z,99326.31
2023-03-31T07:45:00.720Z,99307.28
2023-03-31T07:47:28.126Z,99310.81
2023-03-31T07:49:54.783Z,99302.66
2023-03-31T07:52:21.639Z,99312.41
2023-03-31T07:54:48.126Z,99299.94
2023-03-31T07:57:16.622Z,99293.38
2023-03-31T07:59:43.313Z,99300.72
2023-03-31T08:02:13.755Z,99287.47
2023-03-31T08:04:42.273Z,99296.91
2023-03-31T08:07:10.594Z,99294.50
2023-03-31T08:09:37.586Z,99284.44
2023-03-31T08:12:05.188Z,99279.78
2023-03-31T08:14:40.496Z,99287.94
2023-03-31T08:17:08.437Z,99279.31
2023-03-31T08:19:34.989Z,99272.47
2023-03-31T08:22:01.606Z,99263.47
2023-03-31T08:24:28.152Z,99268.13
2023-03-31T08:26:54.706Z,99272.75
2023-03-31T08:29:21.231Z,99258.03
2023-03-31T08:31:47.732Z,99244.47
2023-03-31T08:34:14.283Z,99243.66
2023-03-31T08:36:41.206Z,99242.88
2023-03-31T08:39:07.753Z,99238.22
2023-03-31T08:41:42.355Z,99240.94
2023-03-31T08:44:34.655Z,99240.47
2023-03-31T08:47:03.371Z,99236.63
2023-03-31T08:49:39.741Z,99240.94
2023-03-31T08:52:12.438Z,99228.16
2023-03-31T08:54:43.838Z,99228.97
2023-03-31T08:57:20.259Z,99234.41
2023-03-31T08:59:47.768Z,99229.28
2023-03-31T09:02:48.965Z,99223.84
2023-03-31T09:05:43.351Z,99223.53
2023-03-31T09:08:34.524Z,99221.91
2023-03-31T09:11:36.847Z,99220.81
2023-03-31T09:14:17.991Z,99207.88
2023-03-31T09:17:15.685Z,99214.91
2023-03-31T09:19:49.085Z,99215.22
2023-03-31T09:22:38.902Z,99203.53
2023-03-31T09:25:12.128Z,99195.38
2023-03-31T09:27:42.480Z,99191.84
2023-03-31T09:30:22.848Z,99185.34
2023-03-31T09:32:54.974Z,99189.31
2023-03-31T09:35:28.705Z,99182.44
2023-03-31T09:37:55.338Z,99181.81
2023-03-31T09:40:24.848Z,99174.94
2023-03-31T09:42:57.403Z,99177.34
2023-03-31T09:45:24.174Z,99173.22
2023-03-31T09:47:54.182Z,99175.09
2023-03-31T09:50:25.120Z,99176.38
2023-03-31T09:52:58.123Z,99173.34
2023-03-31T09:55:38.139Z,99173.50
2023-03-31T09:58:08.151Z,99170.50
2023-03-31T10:00:35.584Z,99179.44
2023-03-31T10:03:07.596Z,99170.16
2023-03-31T10:05:41.302Z,99172.56
2023-03-31T10:08:39.584Z,99173.38
2023-03-31T10:11:06.954Z,99176.88
2023-03-31T10:13:45.562Z,99163.28
2023-03-31T10:16:44.489Z,99158.97
2023-03-31T10:19:13.940Z,99162.81
2023-03-31T10:21:40.766Z,99182.16
2023-03-31T10:24:10.956Z,99175.94
2023-03-31T10:26:38.236Z,99173.22
2023-03-31T10:29:12.509Z,99180.88
2023-03-31T10:31:39.946Z,99179.28
2023-03-31T10:34:09.517Z,99171.13
2023-03-31T10:36:36.148Z,99184.22
2023-03-31T10:39:07.599Z,99172.53
2023-03-31T10:41:34.285Z,99158.16
2023-03-31T10:44:04.073Z,99155.78
2023-03-31T10:46:52.388Z,99163.13
2023-03-31T10:49:27.206Z,99147.63
2023-03-31T10:51:59.392Z,99143.78
2023-03-31T10:54:26.653Z,99153.06
2023-03-31T10:56:56.909Z,99143.59
2023-03-31T10:59:44.880Z,99138.97
2023-03-31T11:02:30.934Z,99142.81
2023-03-31T11:04:57.427Z,99139.31
2023-03-31T11:07:54.906Z,99143.16
2023-03-31T11:10:41.610Z,99152.88
2023-03-31T11:13:16.649Z,99147.47
2023-03-31T11:15:58.224Z,99145.88
2023-03-31T11:18:37.566Z,99145.88
2023-03-31T11:21:20.357Z,99143.16
2023-03-31T11:24:02.097Z,99130.34
2023-03-31T11:26:47.466Z,99135.00
2023-03-31T11:29:20.116Z,99131.44
2023-03-31T11:31:52.881Z,99120.56
2023-03-31T11:34:37.772Z,99121.69
2023-03-31T11:37:15.464Z,99118.97
2023-03-31T11:40:09.290Z,99126.34
2023-03-31T11:42:39.554Z,99109.25
2023-03-31T11:45:21.871Z,99101.88
2023-03-31T11:47:52.907Z,99107.31
2023-03-31T11:50:29.582Z,99094.84
2023-03-31T11:53:03.145Z,99093.72
2023-03-31T11:55:32.409Z,99104.59
2023-03-31T11:58:12.663Z,99097.25
2023-03-31T12:00:44.827Z,99088.28
2023-03-31T12:03:19.955Z,99090.22
2023-03-31T12:05:51.683Z,99078.56
2023-03-31T12:08:42.652Z,99089.41
2023-03-31T12:11:21.585Z,99080.47
2023-03-31T12:13:56.215Z,99076.97
2023-03-31T12:16:29.792Z,99075.34
2023-03-31T12:19:22.528Z,99067.97
2023-03-31T12:22:06.326Z,99090.56
2023-03-31T12:24:34.212Z,99071.53
2023-03-31T12:27:10.487Z,99082.41
2023-03-31T12:29:42.796Z,99084.78
2023-03-31T12:32:19.813Z,99079.34
2023-03-31T12:34:57.819Z,99076.63
2023-03-31T12:37:35.615Z,99079.34
2023-03-31T12:40:02.110Z,99079.34
2023-03-31T12:43:03.193Z,99068.81
2023-03-31T12:45:31.312Z,99062.53
2023-03-31T12:48:25.398Z,99071.53
2023-03-31T12:51:15.413Z,99061.75
2023-03-31T12:53:54.186Z,99057.13
2023-03-31T12:56:21.877Z,99045.44
2023-03-31T12:58:48.453Z,99048.16
2023-03-31T13:01:21.697Z,99037.28
2023-03-31T13:04:07.263Z,99041.94
2023-03-31T13:06:33.874Z,99041.94
2023-03-31T13:09:08.404Z,99041.63
2023-03-31T13:11:36.101Z,99033.00
2023-03-31T13:14:28.662Z,99033.47
2023-03-31T13:17:21.966Z,99029.16
2023-03-31T13:19:49.366Z,99013.97
2023-03-31T13:22:52.740Z,99033.00
2023-03-31T13:25:34.184Z,99033.78
2023-03-31T13:28:11.429Z,99012.84
2023-03-31T13:30:43.826Z,99018.28
2023-03-31T13:33:19.651Z,99003.09
2023-03-31T13:35:50.088Z,99008.88
2023-03-31T13:38:19.264Z,99004.22
2023-03-31T13:41:18.702Z,98999.88
2023-03-31T13:44:04.141Z,99013.00
2023-03-31T13:46:35.005Z,99003.72
2023-03-31T13:49:29.537Z,99003.72
2023-03-31T13:52:04.741Z,98999.44
2023-03-31T13:55:10.127Z,98999.44
2023-03-31T13:58:34.642Z,98997.50
2023-03-31T14:01:29.835Z,99003.72
2023-03-31T14:04:06.951Z,98994.78
2023-03-31T14:06:41.513Z,98991.72
2023-03-31T14:09:12.611Z,98983.59
2023-03-31T14:11:39.166Z,98990.16
2023-03-31T14:14:06.499Z,98983.59
2023-03-31T14:16:37.547Z,98987.91
2023-03-31T14:19:23.352Z,98971.13
2023-03-31T14:22:03.971Z,98968.41
2023-03-31T14:24:40.841Z,98982.00
2023-03-31T14:27:29.244Z,98971.91
2023-03-31T14:30:13.613Z,98974.63
2023-03-31T14:32:56.917Z,98969.19
2023-03-31T14:35:38.556Z,98966.50
2023-03-31T14:38:17.009Z,98977.69
2023-03-31T14:40:56.351Z,98959.47
2023-03-31T14:43:26.972Z,98962.97
2023-03-31T14:46:00.800Z,98971.13
2023-03-31T14:48:29.672Z,98963.31
2023-03-31T14:51:02.355Z,98965.53
2023-03-31T14:53:29.146Z,98957.38
2023-03-31T14:56:03.549Z,98960.09
2023-03-31T14:58:44.143Z,98962.81
2023-03-31T15:01:14.820Z,98950.81
2023-03-31T15:03:41.740Z,98949.56
2023-03-31T15:06:09.394Z,98950.34
2023-03-31T15:08:37.592Z,98948.78
2023-03-31T15:11:19.193Z,98938.69
2023-03-31T15:14:00.663Z,98939.50
2023-03-31T15:16:45.453Z,98932.47
2023-03-31T15:19:22.812Z,98941.41
2023-03-31T15:22:21.324Z,98940.28
2023-03-31T15:24:47.808Z,98921.25
2023-03-31T15:27:43.514Z,98922.06
2023-03-31T15:30:19.196Z,98917.41
2023-03-31T15:32:46.226Z,98925.56
2023-03-31T15:35:27.158Z,98923.34
2023-03-31T15:37:56.279Z,98910.88
2023-03-31T15:40:27.225Z,98908.63
2023-03-31T15:43:06.327Z,98909.41
2023-03-31T15:45:56.291Z,98912.13
2023-03-31T15:48:50.723Z,98903.19
2023-03-31T15:51:21.716Z,98900.03
2023-03-31T15:53:56.196Z,98908.97
2023-03-31T15:56:44.042Z,98910.88
2023-03-31T15:59:27.716Z,98911.97
2023-03-31T16:02:01.867Z,98907.03
2023-03-31T16:04:33.013Z,98904.63
2023-03-31T16:07:09.645Z,98907.34
2023-03-31T16:09:44.982Z,98897.31
2023-03-31T16:12:35.486Z,98910.88
2023-03-31T16:15:01.939Z,98900.03
2023-03-31T16:17:28.408Z,98904.16
2023-03-31T16:20:07.050Z,98900.66
2023-03-31T16:22:40.241Z,98900.66
2023-03-31T16:25:16.036Z,98886.75
2023-03-31T16:27:47.310Z,98885.94
2023-03-31T16:30:17.286Z,98892.97
2023-03-31T16:33:04.522Z,98882.09
2023-03-31T16:35:37.062Z,98879.72
2023-03-31T16:38:05.309Z,98879.72
2023-03-31T16:40:36.866Z,98874.28
2023-03-31T16:43:12.570Z,98879.72
2023-03-31T16:45:40.129Z,98876.22
2023-03-31T16:48:15.513Z,98869.97
2023-03-31T16:50:44.691Z,98873.78
2023-03-31T16:53:13.190Z,98885.50
2023-03-31T16:55:39.648Z,98884.34
2023-03-31T16:58:06.755Z,98886.28
2023-03-31T17:00:35.696Z,98883.88
2023-03-31T17:03:03.877Z,98874.13
2023-03-31T17:05:34.585Z,98876.50
2023-03-31T17:08:01.227Z,98878.44
2023-03-31T17:10:27.814Z,98877.63
2023-03-31T17:12:54.388Z,98899.72
2023-03-31T17:15:21.701Z,98885.34
2023-03-31T17:17:48.504Z,98883.41
2023-03-31T17:20:15.620Z,98888.84
2023-03-31T17:22:42.189Z,98888.84
2023-03-31T17:25:09.589Z,98892.66
2023-03-31T17:27:36.472Z,98888.06
2023-03-31T17:32:35.758Z,98894.91
2023-03-31T17:35:03.364Z,98886.44
2023-03-31T17:37:30.640Z,98899.22
2023-03-31T17:39:57.197Z,98893.78
2023-03-31T17:42:23.807Z,98885.63
2023-03-31T17:44:51.704Z,98882.91
2023-03-31T17:47:19.165Z,98891.06
2023-03-31T17:49:46.094Z,98887.22
2023-03-31T17:52:13.424Z,98884.84
2023-03-31T17:54:40.541Z,98881.34
2023-03-31T17:57:07.330Z,98882.47
2023-03-31T17:59:33.989Z,98875.09
2023-03-31T18:02:01.070Z,98871.59
2023-03-31T18:04:27.645Z,98872.38
2023-03-31T18:06:54.703Z,98893.31
2023-03-31T18:09:22.039Z,98893.63
2023-03-31T18:11:48.565Z,98880.06
2023-03-31T18:14:15.069Z,98881.97
2023-03-31T18:16:41.732Z,98879.25
2023-03-31T18:19:09.096Z,98893.97
2023-03-31T18:21:36.944Z,98874.16
2023-03-31T18:24:03.749Z,98885.81
2023-03-31T18:26:30.856Z,98875.75
2023-03-31T18:28:57.384Z,98873.38
2023-03-31T18:31:26.788Z,98874.16
2023-03-31T18:33:54.798Z,98865.22
2023-03-31T18:36:22.968Z,98872.25
2023-03-31T18:38:50.622Z,98880.69
2023-03-31T18:41:17.809Z,98863.59
2023-03-31T18:43:44.617Z,98869.03
2023-03-31T18:46:11.824Z,98872.25
2023-03-31T18:48:39.185Z,98877.19
2023-03-31T18:51:05.697Z,98880.69
2023-03-31T18:53:32.452Z,98875.25
2023-03-31T18:56:00.026Z,98872.88
2023-03-31T18:58:29.281Z,98883.75
2023-03-31T19:00:56.973Z,98881.81
2023-03-31T19:03:23.875Z,98867.44
2023-03-31T19:05:50.688Z,98870.16
2023-03-31T19:08:17.269Z,98877.50
2023-03-31T19:10:44.036Z,98878.31
2023-03-31T19:13:16.884Z,98883.75
2023-03-31T19:15:43.488Z,98877.50
2023-03-31T19:18:14.815Z,98885.97
2023-03-31T19:20:41.441Z,98869.38
2023-03-31T19:23:07.949Z,98870.50
2023-03-31T19:25:34.591Z,98879.75
2023-03-31T19:28:01.065Z,98867.78
2023-03-31T19:30:28.175Z,98880.53
2023-03-31T19:32:54.803Z,98866.97
2023-03-31T19:35:21.513Z,98875.09
2023-03-31T19:37:48.745Z,98879.75
2023-03-31T19:40:15.751Z,98887.91
2023-03-31T19:42:42.978Z,98879.75
2023-03-31T19:45:09.850Z,98877.03
2023-03-31T19:47:36.600Z,98893.66
2023-03-31T19:50:03.830Z,98879.28
2023-03-31T19:52:30.713Z,98894.44
2023-03-31T19:54:57.307Z,98885.78
2023-03-31T19:57:23.930Z,98875.78
2023-03-31T19:59:50.630Z,98882.28
2023-03-31T20:02:17.865Z,98882.28
2023-03-31T20:04:44.739Z,98882.59
2023-03-31T20:07:11.819Z,98885.00
2023-03-31T20:09:38.477Z,98883.41
2023-03-31T20:12:05.148Z,98897.78
2023-03-31T20:14:31.734Z,98877.63
2023-03-31T20:17:00.806Z,98890.94
2023-03-31T20:19:27.761Z,98884.19
2023-03-31T20:21:55.885Z,98891.88
2023-03-31T20:24:22.687Z,98889.47
2023-03-31T20:26:49.987Z,98882.13
2023-03-31T20:29:16.675Z,98893.47
2023-03-31T20:31:43.317Z,98884.53
2023-03-31T20:34:14.913Z,98894.13
2023-03-31T20:36:43.528Z,98891.41
2023-03-31T20:39:11.103Z,98883.25
2023-03-31T20:41:37.586Z,98887.09
2023-03-31T20:44:05.949Z,98897.97
2023-03-31T20:46:32.814Z,98899.09
2023-03-31T20:48:59.418Z,98899.88
2023-03-31T20:51:29.516Z,98897.97
2023-03-31T20:53:57.909Z,98904.50
2023-03-31T20:56:28.656Z,98901.81
2023-03-31T20:58:58.959Z,98904.50
2023-03-31T21:01:28.271Z,98904.03
2023-03-31T21:03:55.058Z,98915.69
2023-03-31T21:06:21.716Z,98913.75
2023-03-31T21:08:52.642Z,98920.31
2023-03-31T21:11:19.196Z,98916.81
2023-03-31T21:13:48.101Z,98923.38
2023-03-31T21:16:15.298Z,98928.00
2023-03-31T21:18:42.108Z,98926.09
2023-03-31T21:21:12.310Z,98928.00
2023-03-31T21:23:39.902Z,98933.44
2023-03-31T21:26:08.954Z,98938.88
2023-03-31T21:28:38.109Z,98937.59
2023-03-31T21:31:15.729Z,98935.66
2023-03-31T21:33:43.809Z,98934.88
2023-03-31T21:36:16.370Z,98944.94
2023-03-31T21:38:43.636Z,98942.53
2023-03-31T21:41:12.048Z,98941.72
2023-03-31T21:43:39.220Z,98950.66
2023-03-31T21:46:07.086Z,98941.72
2023-03-31T21:48:34.100Z,98945.56
2023-03-31T21:51:01.524Z,98950.84
2023-03-31T21:53:30.661Z,98953.22
2023-03-31T21:55:58.197Z,98964.09
2023-03-31T21:58:28.328Z,98965.22
2023-03-31T22:01:01.281Z,98975.28
2023-03-31T22:03:29.017Z,98976.25
2023-03-31T22:05:57.160Z,98976.41
2023-03-31T22:08:25.288Z,98977.50
2023-03-31T22:10:53.089Z,98980.22
2023-03-31T22:13:21.978Z,98980.88
2023-03-31T22:15:48.888Z,98985.47
2023-03-31T22:18:17.043Z,98982.75
2023-03-31T22:20:44.045Z,98987.91
2023-03-31T22:23:10.742Z,98991.41
2023-03-31T22:25:37.467Z,98999.88
2023-03-31T22:28:06.957Z,99007.19
2023-03-31T22:30:34.002Z,99012.34
2023-03-31T22:33:00.637Z,99014.25
2023-03-31T22:35:27.554Z,99013.47
2023-03-31T22:37:54.076Z,99026.22
2023-03-31T22:40:20.626Z,99021.91
2023-03-31T22:42:47.647Z,99023.50
2023-03-31T22:45:14.269Z,99030.84
2023-03-31T22:47:42.452Z,99036.91
2023-03-31T22:50:10.321Z,99029.09
2023-03-31T22:52:37.059Z,99035.00
2023-03-31T22:55:04.115Z,99039.63
2023-03-31T22:57:31.104Z,99039.63
2023-03-31T22:59:57.634Z,99052.72
2023-03-31T23:02:24.225Z,99045.69
2023-03-31T23:04:50.760Z,99039.47
2023-03-31T23:07:17.912Z,99051.94
2023-03-31T23:09:44.397Z,99056.56
2023-03-31T23:12:10.892Z,99061.19
2023-03-31T23:14:37.395Z,99062.28
2023-03-31T23:17:04.017Z,99058.47
2023-03-31T23:19:30.743Z,99063.91
2023-03-31T23:21:58.367Z,99065.00
2023-03-31T23:24:24.996Z,99073.66
2023-03-31T23:26:52.370Z,99070.13
2023-03-31T23:29:18.879Z,99078.56
2023-03-31T23:31:45.389Z,99084.00
2023-03-31T23:34:13.939Z,99081.28
2023-03-31T23:36:40.631Z,99086.44
2023-03-31T23:39:07.156Z,99093.78
2023-03-31T23:41:33.868Z,99099.50
2023-03-31T23:44:00.504Z,99105.72
2023-03-31T23:46:27.163Z,99106.84
2023-03-31T23:48:53.751Z,99101.75
2023-03-31T23:51:20.290Z,99106.53
2023-03-31T23:53:47.467Z,99098.72
2023-03-31T23:56:14.797Z,99106.06
2023-03-31T23:58:43.100Z,99110.97
